createdAt,value
2022-12-13T00:03:23.681Z,1106.26415
2022-12-13T00:08:25.290Z,1106.26415
2022-12-13T00:13:26.942Z,1283.13043
2022-12-13T00:18:28.649Z,1410.66667
2022-12-13T00:23:30.275Z,1344
2022-12-13T00:28:31.931Z,1410.66667
2022-12-13T00:33:33.568Z,1283.13043
2022-12-13T00:38:35.209Z,1106.26415
2022-12-13T00:43:36.896Z,1064
2022-12-13T00:48:38.695Z,988.0678
2022-12-13T00:53:40.304Z,1227.33333
2022-12-13T00:58:43.361Z,1227.33333
2022-12-13T01:03:48.067Z,1283.13043
2022-12-13T01:08:49.720Z,1376.55814
2022-12-13T01:13:51.301Z,1254.6383
2022-12-13T01:18:52.913Z,1201.14286
2022-12-13T01:23:54.533Z,1565.05263
2022-12-13T01:28:56.132Z,1446.43902
2022-12-13T01:33:57.742Z,1446.43902
2022-12-13T01:38:59.558Z,1376.55814
2022-12-13T01:44:01.533Z,1344
2022-12-13T01:49:03.207Z,1024.70175
2022-12-13T01:54:04.883Z,906.5
2022-12-13T01:59:06.708Z,1410.66667
2022-12-13T02:04:08.435Z,1410.66667
2022-12-13T02:09:10.081Z,1446.43902
2022-12-13T02:14:11.691Z,1312.88889
2022-12-13T02:19:20.535Z,1376.55814
2022-12-13T02:24:22.155Z,1446.43902
2022-12-13T02:29:30.468Z,1376.55814
2022-12-13T02:34:34.091Z,1312.88889
2022-12-13T02:39:35.882Z,1344
2022-12-13T02:44:37.521Z,1201.14286
2022-12-13T02:49:39.233Z,1410.66667
2022-12-13T02:54:42.849Z,1446.43902
2022-12-13T02:59:44.797Z,1484
2022-12-13T03:04:46.399Z,1227.33333
2022-12-13T03:09:48.017Z,1410.66667
2022-12-13T03:14:49.689Z,1344
2022-12-13T03:19:51.292Z,1201.14286
2022-12-13T03:24:52.914Z,1283.13043
2022-12-13T03:29:54.910Z,1523.48718
2022-12-13T03:35:00.932Z,1655.11111
2022-12-13T03:40:02.719Z,1565.05263
2022-12-13T03:45:04.361Z,1565.05263
2022-12-13T03:50:25.785Z,1376.55814
2022-12-13T03:55:29.097Z,1484
2022-12-13T04:00:30.755Z,1283.13043
2022-12-13T04:05:32.381Z,1410.66667
2022-12-13T04:10:34.224Z,1704
2022-12-13T04:15:35.870Z,1410.66667
2022-12-13T04:20:37.537Z,1312.88889
2022-12-13T04:25:39.298Z,1484
2022-12-13T04:30:40.882Z,1344
2022-12-13T04:35:42.472Z,1312.88889
2022-12-13T04:40:44.152Z,1201.14286
2022-12-13T04:45:45.773Z,1064
2022-12-13T04:50:47.429Z,906.5
2022-12-13T04:55:49.039Z,1176
2022-12-13T05:00:50.665Z,1201.14286
2022-12-13T05:05:52.310Z,1128.61538
2022-12-13T05:10:53.909Z,1151.84314
2022-12-13T05:15:55.552Z,1024.70175
2022-12-13T05:20:57.185Z,1044
2022-12-13T05:25:58.774Z,937.54839
2022-12-13T05:31:00.396Z,849.88235
2022-12-13T05:36:02.413Z,921.77778
2022-12-13T05:41:04.022Z,988.0678
2022-12-13T05:46:05.700Z,937.54839
2022-12-13T05:51:10.573Z,1064
2022-12-13T05:56:13.085Z,1151.84314
2022-12-13T06:01:24.331Z,1044
2022-12-13T06:06:26.014Z,1410.66667
2022-12-13T06:11:31.118Z,1523.48718
2022-12-13T06:16:34.233Z,1484
2022-12-13T06:21:41.129Z,1410.66667
2022-12-13T06:26:47.413Z,1755.76471
2022-12-13T06:31:48.993Z,1931.09677
2022-12-13T06:36:50.860Z,1931.09677
2022-12-13T06:41:52.434Z,1931.09677
2022-12-13T06:46:54.446Z,1704
2022-12-13T06:52:14.510Z,1565.05263
2022-12-13T06:57:16.124Z,1755.76471
2022-12-13T07:02:24.948Z,1608.86486
2022-12-13T07:07:27.574Z,1608.86486
2022-12-13T07:12:29.642Z,1755.76471
2022-12-13T07:17:32.467Z,1565.05263
2022-12-13T07:22:36.967Z,1810.66667
2022-12-13T07:27:41.935Z,1565.05263
2022-12-13T07:32:43.730Z,1565.05263
2022-12-13T07:37:45.371Z,1704
2022-12-13T07:42:46.957Z,1608.86486
2022-12-13T07:47:48.676Z,1755.76471
2022-12-13T07:52:50.336Z,1755.76471
2022-12-13T07:57:51.945Z,1655.11111
2022-12-13T08:02:53.553Z,1755.76471
2022-12-13T08:07:55.146Z,1997.33333
2022-12-13T08:12:56.795Z,1484
2022-12-13T08:17:58.446Z,1064
2022-12-13T08:23:01.951Z,863.40299
2022-12-13T08:28:04.083Z,921.77778
2022-12-13T08:33:05.698Z,849.88235
2022-12-13T08:38:07.312Z,836.75362
2022-12-13T08:43:08.895Z,921.77778
2022-12-13T08:48:10.499Z,906.5
2022-12-13T08:53:12.058Z,921.77778
2022-12-13T08:58:31.459Z,988.0678
2022-12-13T09:03:33.085Z,1446.43902
2022-12-13T09:08:35.141Z,1869
2022-12-13T09:13:37.183Z,1931.09677
2022-12-13T09:18:45.460Z,1997.33333
2022-12-13T09:23:56.620Z,1997.33333
2022-12-13T09:29:10.963Z,2068.13793
2022-12-13T09:34:13.485Z,1376.55814
2022-12-13T09:39:15.192Z,1084.74074
2022-12-13T09:44:30.530Z,1254.6383
2022-12-13T09:49:35.739Z,1128.61538
2022-12-13T09:54:47.148Z,1254.6383
2022-12-13T09:59:49.823Z,937.54839
2022-12-13T10:04:51.439Z,799.55556
2022-12-13T10:09:53.048Z,824
2022-12-13T10:14:54.653Z,811.60563
2022-12-13T10:19:56.265Z,1006.06897
2022-12-13T10:24:57.967Z,937.54839
2022-12-13T10:29:59.598Z,824
2022-12-13T10:35:01.210Z,921.77778
2022-12-13T10:40:02.865Z,1227.33333
2022-12-13T10:45:04.635Z,1704
2022-12-13T10:50:06.275Z,1810.66667
2022-12-13T10:55:22.765Z,1755.76471
2022-12-13T11:00:25.613Z,1755.76471
2022-12-13T11:05:27.224Z,1931.09677
2022-12-13T11:10:28.958Z,1997.33333
2022-12-13T11:15:30.664Z,1523.48718
2022-12-13T11:20:32.251Z,1344
2022-12-13T11:25:33.869Z,1523.48718
2022-12-13T11:30:35.509Z,1565.05263
2022-12-13T11:35:37.168Z,2068.13793
2022-12-13T11:40:38.766Z,1997.33333
2022-12-13T11:45:40.447Z,1997.33333
2022-12-13T11:50:42.281Z,1931.09677
2022-12-13T11:55:43.939Z,2144
2022-12-13T12:00:45.512Z,2068.13793
2022-12-13T12:05:48.641Z,1931.09677
2022-12-13T12:10:58.046Z,1446.43902
2022-12-13T12:16:02.989Z,1176
2022-12-13T12:21:04.632Z,1446.43902
2022-12-13T12:26:06.254Z,1446.43902
2022-12-13T12:36:08.192Z,1410.66667
2022-12-13T12:41:16.997Z,1410.66667
2022-12-13T12:46:19.171Z,1312.88889
2022-12-13T12:51:20.824Z,1565.05263
2022-12-13T12:56:22.425Z,1608.86486
2022-12-13T13:01:24.098Z,1704
2022-12-13T13:06:25.766Z,1997.33333
2022-12-13T13:11:27.393Z,1704
2022-12-13T13:16:29.062Z,1704
2022-12-13T13:21:30.718Z,1446.43902
2022-12-13T13:26:36.340Z,1106.26415
2022-12-13T13:31:38.476Z,1106.26415
2022-12-13T13:36:40.120Z,953.83607
2022-12-13T13:41:41.742Z,1024.70175
2022-12-13T13:46:43.423Z,1376.55814
2022-12-13T13:52:16.754Z,1227.33333
2022-12-13T13:58:07.253Z,1227.33333
2022-12-13T14:03:22.420Z,849.88235
2022-12-13T14:08:31.058Z,484.35088
2022-12-13T14:13:32.657Z,393.63504
2022-12-13T14:18:34.349Z,288.13408
2022-12-13T14:23:35.987Z,229.18519
2022-12-13T14:28:37.663Z,253.54774
2022-12-13T14:33:39.291Z,243.02913
2022-12-13T14:38:49.334Z,479.65217
2022-12-13T14:43:50.997Z,824
2022-12-13T14:48:52.618Z,585.66667
2022-12-13T14:53:54.225Z,368.82759
2022-12-13T14:58:55.901Z,217.77778
2022-12-13T15:03:59.592Z,258.28571
2022-12-13T15:09:02.540Z,215.36564
2022-12-13T15:14:07.095Z,263.17098
2022-12-13T15:19:11.549Z,193.39271
2022-12-13T15:24:13.161Z,162.43972
2022-12-13T15:29:14.818Z,145.30719
2022-12-13T15:34:28.289Z,137.71069
2022-12-13T15:39:31.383Z,148.65116
2022-12-13T15:44:32.999Z,157.88889
2022-12-13T15:49:34.742Z,187.47826
2022-12-13T15:54:36.496Z,158.63415
2022-12-13T15:59:38.071Z,180.92308
2022-12-13T16:04:39.695Z,187.47826
2022-12-13T16:09:41.305Z,184.625
2022-12-13T16:14:49.300Z,169.64103
2022-12-13T16:19:51.761Z,177.33333
2022-12-13T16:24:53.501Z,173.85075
2022-12-13T16:29:55.118Z,172.99628
2022-12-13T16:34:56.712Z,172.14815
2022-12-13T16:39:58.291Z,210.66667
2022-12-13T16:45:39.516Z,219
2022-12-13T16:50:42.634Z,226.56881
2022-12-13T16:55:44.294Z,243.02913
2022-12-13T17:01:00.190Z,288.13408
2022-12-13T17:06:01.855Z,288.13408
2022-12-13T17:11:06.597Z,263.17098
2022-12-13T17:16:08.388Z,244.4878
2022-12-13T17:21:10.091Z,211.82609
2022-12-13T17:26:11.682Z,244.4878
2022-12-13T17:31:13.490Z,227.87097
2022-12-13T17:36:15.261Z,219
2022-12-13T17:41:16.854Z,216.56637
2022-12-13T17:46:18.565Z,235.94313
2022-12-13T17:51:20.262Z,214.17544
2022-12-13T17:56:21.884Z,227.87097
2022-12-13T18:01:23.564Z,243.02913
2022-12-13T18:06:25.248Z,210.66667
2022-12-13T18:11:34.495Z,225.27854
2022-12-13T18:16:38.274Z,261.52577
2022-12-13T18:21:40.556Z,371.77778
2022-12-13T18:26:42.169Z,410.66667
2022-12-13T18:31:43.887Z,421.51938
2022-12-13T18:36:45.551Z,436.8
2022-12-13T18:41:47.141Z,410.66667
2022-12-13T18:46:48.748Z,387.16547
2022-12-13T18:51:50.331Z,298.02299
2022-12-13T18:56:51.955Z,315.08434
2022-12-13T19:01:53.629Z,344
2022-12-13T19:06:55.287Z,317.33333
2022-12-13T19:11:58.654Z,310.66667
2022-12-13T19:17:00.389Z,346.61438
2022-12-13T19:22:02.164Z,396.94118
2022-12-13T19:27:03.755Z,390.37681
2022-12-13T19:32:05.372Z,400.2963
2022-12-13T19:37:07.076Z,410.66667
2022-12-13T19:42:08.750Z,393.63504
2022-12-13T19:47:10.337Z,396.94118
2022-12-13T19:52:11.943Z,466.0339
2022-12-13T19:57:13.522Z,444.81301
2022-12-13T20:02:15.109Z,380.87943
2022-12-13T20:07:16.760Z,410.66667
2022-12-13T20:12:18.418Z,479.65217
2022-12-13T20:17:20.045Z,566.22222
2022-12-13T20:22:21.712Z,390.37681
2022-12-13T20:27:23.505Z,494
2022-12-13T20:32:25.257Z,453.09091
2022-12-13T20:37:26.851Z,484.35088
2022-12-13T20:42:28.429Z,494
2022-12-13T20:47:33.830Z,530.66667
2022-12-13T20:52:38.230Z,453.09091
2022-12-13T20:57:39.859Z,514.37037
2022-12-13T21:02:41.503Z,429.03937
2022-12-13T21:07:43.100Z,644
2022-12-13T21:12:50.027Z,695.21951
2022-12-13T21:17:51.645Z,714
2022-12-13T21:22:53.266Z,660.27907
2022-12-13T21:27:54.889Z,414.22901
2022-12-13T21:32:56.482Z,484.35088
2022-12-13T21:38:03.625Z,799.55556
2022-12-13T21:43:06.882Z,921.77778
2022-12-13T21:48:08.501Z,849.88235
2022-12-13T21:53:10.124Z,765.33333
2022-12-13T21:58:11.924Z,723.74684
2022-12-13T22:03:13.504Z,877.33333
2022-12-13T22:08:15.143Z,891.69231
2022-12-13T22:13:16.776Z,723.74684
2022-12-13T22:18:18.337Z,652.04598
2022-12-13T22:23:19.954Z,613.56522
2022-12-13T22:28:21.587Z,733.74359
2022-12-13T22:33:23.306Z,704.49383
2022-12-13T22:38:25.129Z,660.27907
2022-12-13T22:43:27.263Z,636.13483
2022-12-13T22:48:29.466Z,530.66667
2022-12-13T22:53:31.401Z,560
2022-12-13T22:58:33.085Z,536.30769
2022-12-13T23:03:34.703Z,457.33333
2022-12-13T23:08:41.787Z,457.33333
2022-12-13T23:13:44.987Z,414.22901
2022-12-13T23:18:50.213Z,341.41935
2022-12-13T23:23:51.825Z,206.12766
2022-12-13T23:28:53.484Z,167.18841
2022-12-13T23:33:55.125Z,225.27854
2022-12-13T23:38:56.729Z,179.1145
2022-12-13T23:43:58.369Z,134.12346
2022-12-13T23:48:59.995Z,120.5043
2022-12-13T23:54:01.588Z,118.50425
2022-12-13T23:59:03.199Z,115.11111
